Time;durP1;ratioP1;P1;durP2;ratioP2;P2;SDS_P1;SDS_P2;PMS_P1;PMS_P2;Temp;Humidity;BMP_temperature;BMP_pressure;BME280_temperature;BME280_humidity;BME280_pressure;Samples;Min_cycle;Max_cycle;Signal;HPM_P1;HPM_P2
2021/03/07 00:00:14;;;;;;;18.80;11.40;;;;;;;;;;5052934;28;20176;-75
2021/03/07 00:02:40;;;;;;;17.50;11.60;;;;;;;;;;5052921;28;20208;-75
2021/03/07 00:05:06;;;;;;;15.70;10.90;;;;;;;;;;5053109;28;20549;-74
2021/03/07 00:07:32;;;;;;;14.67;10.37;;;;;;;;;;5053705;28;20699;-75
2021/03/07 00:09:58;;;;;;;15.53;11.17;;;;;;;;;;5053106;28;20255;-74
2021/03/07 00:12:24;;;;;;;14.17;10.47;;;;;;;;;;5053571;28;20262;-74
2021/03/07 00:14:50;;;;;;;16.73;11.17;;;;;;;;;;5052695;28;20239;-75
2021/03/07 00:17:16;;;;;;;17.07;10.60;;;;;;;;;;5052852;28;20182;-75
2021/03/07 00:19:42;;;;;;;15.77;10.50;;;;;;;;;;5053559;28;20626;-74
2021/03/07 00:22:08;;;;;;;18.93;11.03;;;;;;;;;;5053690;28;20214;-74
2021/03/07 00:24:34;;;;;;;15.40;11.47;;;;;;;;;;5054369;28;20189;-74
2021/03/07 00:27:00;;;;;;;18.97;11.30;;;;;;;;;;5036139;28;20756;-74
2021/03/07 00:29:26;;;;;;;18.57;10.70;;;;;;;;;;5052714;28;20246;-74
2021/03/07 00:31:52;;;;;;;16.80;11.27;;;;;;;;;;5035799;28;20198;-74
2021/03/07 00:34:18;;;;;;;15.70;10.70;;;;;;;;;;5052612;28;20183;-74
2021/03/07 00:36:44;;;;;;;16.27;10.27;;;;;;;;;;5035660;28;20570;-75
2021/03/07 00:39:10;;;;;;;16.63;10.03;;;;;;;;;;5051864;28;20193;-74
2021/03/07 00:41:36;;;;;;;11.83;9.17;;;;;;;;;;5052199;28;20202;-74
2021/03/07 00:44:03;;;;;;;15.17;9.73;;;;;;;;;;5052096;28;20181;-74
2021/03/07 00:46:29;;;;;;;13.63;9.53;;;;;;;;;;5052500;28;20182;-75
2021/03/07 00:48:55;;;;;;;14.30;9.50;;;;;;;;;;5035289;28;20351;-75
2021/03/07 00:51:21;;;;;;;17.17;9.97;;;;;;;;;;5052027;28;20208;-75
2021/03/07 00:53:47;;;;;;;17.87;10.20;;;;;;;;;;5051633;28;20171;-75
2021/03/07 00:56:13;;;;;;;15.90;10.20;;;;;;;;;;5053300;28;20175;-75
2021/03/07 00:58:39;;;;;;;14.67;9.83;;;;;;;;;;5051763;28;20179;-74
2021/03/07 01:01:05;;;;;;;15.70;9.80;;;;;;;;;;5052954;28;20171;-75
2021/03/07 01:03:31;;;;;;;19.20;10.47;;;;;;;;;;5053019;28;20180;-75
2021/03/07 01:05:57;;;;;;;16.40;8.80;;;;;;;;;;5051746;28;20180;-75
2021/03/07 01:08:23;;;;;;;12.03;8.90;;;;;;;;;;5051210;28;20265;-75
2021/03/07 01:10:49;;;;;;;15.40;9.13;;;;;;;;;;5051658;28;20189;-74
2021/03/07 01:13:18;;;;;;;13.70;9.37;;;;;;;;;;5034461;28;20307;-74
2021/03/07 01:15:44;;;;;;;15.87;10.17;;;;;;;;;;5035051;28;20176;-75
2021/03/07 01:18:10;;;;;;;16.63;9.87;;;;;;;;;;5052379;28;20663;-75
2021/03/07 01:20:36;;;;;;;18.37;10.43;;;;;;;;;;5052738;28;20179;-75
2021/03/07 01:23:02;;;;;;;16.77;10.30;;;;;;;;;;5051281;28;20194;-75
2021/03/07 01:25:31;;;;;;;15.20;9.97;;;;;;;;;;5052566;28;20181;-75
2021/03/07 01:27:57;;;;;;;12.50;10.27;;;;;;;;;;5051167;28;20211;-75
2021/03/07 01:30:23;;;;;;;13.83;10.17;;;;;;;;;;5034542;28;20805;-75
2021/03/07 01:32:49;;;;;;;13.60;10.33;;;;;;;;;;5051071;28;20198;-75
2021/03/07 01:35:15;;;;;;;12.33;9.93;;;;;;;;;;5051283;28;20171;-75
2021/03/07 01:37:41;;;;;;;15.13;9.90;;;;;;;;;;5051061;28;20177;-75
2021/03/07 01:40:08;;;;;;;16.63;10.27;;;;;;;;;;5034503;28;20275;-75
2021/03/07 01:42:34;;;;;;;15.63;10.40;;;;;;;;;;5050977;28;20600;-75
2021/03/07 01:45:00;;;;;;;13.33;9.57;;;;;;;;;;5050899;28;20259;-75
2021/03/07 01:47:28;;;;;;;14.60;9.77;;;;;;;;;;5051027;28;20183;-75
2021/03/07 01:49:54;;;;;;;12.47;9.40;;;;;;;;;;5034288;28;20175;-75
2021/03/07 01:52:20;;;;;;;14.13;10.07;;;;;;;;;;5050890;28;20201;-75
2021/03/07 01:54:46;;;;;;;14.53;10.27;;;;;;;;;;5050819;28;20172;-75
2021/03/07 01:57:12;;;;;;;13.43;9.87;;;;;;;;;;5050991;28;20207;-75
2021/03/07 01:59:38;;;;;;;15.03;9.97;;;;;;;;;;5050539;28;20189;-75
2021/03/07 02:02:04;;;;;;;14.07;9.70;;;;;;;;;;5050725;28;20196;-75
2021/03/07 02:04:30;;;;;;;12.60;9.83;;;;;;;;;;5050542;28;20270;-75
2021/03/07 02:06:55;;;;;;;15.43;10.23;;;;;;;;;;5050700;28;20183;-75
2021/03/07 02:09:21;;;;;;;13.97;10.03;;;;;;;;;;5051433;28;20700;-75
2021/03/07 02:11:47;;;;;;;16.23;9.77;;;;;;;;;;5050861;28;20702;-75
2021/03/07 02:14:13;;;;;;;14.33;9.83;;;;;;;;;;5034269;28;20178;-75
2021/03/07 02:16:39;;;;;;;16.13;9.50;;;;;;;;;;5050857;28;20681;-75
2021/03/07 02:19:05;;;;;;;14.33;9.60;;;;;;;;;;5050370;28;20543;-74
2021/03/07 02:21:32;;;;;;;14.47;9.47;;;;;;;;;;5034089;28;20214;-74
2021/03/07 02:24:13;;;;;;;16.10;10.00;;;;;;;;;;5050353;28;20205;-74
2021/03/07 02:26:40;;;;;;;12.93;9.23;;;;;;;;;;5050583;28;20182;-74
2021/03/07 02:29:07;;;;;;;14.20;9.47;;;;;;;;;;5033635;28;20217;-74
2021/03/07 02:31:33;;;;;;;11.63;8.87;;;;;;;;;;5060187;28;20286;-74
2021/03/07 02:34:17;;;;;;;14.90;9.20;;;;;;;;;;5063533;28;20174;-74
2021/03/07 02:36:43;;;;;;;15.10;10.07;;;;;;;;;;5046869;28;20174;-74
2021/03/07 02:39:09;;;;;;;14.67;8.63;;;;;;;;;;5046398;28;20192;-75
2021/03/07 02:41:35;;;;;;;14.87;9.57;;;;;;;;;;5064710;28;20194;-75
2021/03/07 02:44:02;;;;;;;15.20;9.13;;;;;;;;;;5063293;28;20211;-74
2021/03/07 02:46:30;;;;;;;13.70;9.37;;;;;;;;;;5063109;28;20343;-74
2021/03/07 02:48:56;;;;;;;16.87;10.17;;;;;;;;;;5043496;28;20214;-74
2021/03/07 02:51:27;;;;;;;16.03;10.17;;;;;;;;;;5042968;28;20183;-74
2021/03/07 02:53:53;;;;;;;14.33;9.73;;;;;;;;;;5026762;28;20187;-74
2021/03/07 02:56:19;;;;;;;14.13;10.27;;;;;;;;;;5043675;28;20551;-74
2021/03/07 02:58:45;;;;;;;14.23;9.53;;;;;;;;;;5039420;28;20653;-75
2021/03/07 03:01:12;;;;;;;14.80;9.80;;;;;;;;;;5030782;28;20460;-74
2021/03/07 03:03:38;;;;;;;14.93;9.87;;;;;;;;;;5030019;28;20181;-74
2021/03/07 03:06:04;;;;;;;13.10;9.17;;;;;;;;;;5028978;28;20645;-74
2021/03/07 03:08:30;;;;;;;13.53;9.60;;;;;;;;;;5039287;28;20219;-74
2021/03/07 03:10:56;;;;;;;13.93;9.83;;;;;;;;;;5016412;28;20568;-74
2021/03/07 03:13:22;;;;;;;14.70;8.87;;;;;;;;;;5009999;28;20218;-75
2021/03/07 03:15:48;;;;;;;15.03;9.33;;;;;;;;;;5010534;28;20226;-75
2021/03/07 03:18:15;;;;;;;13.10;9.63;;;;;;;;;;5013550;28;20190;-75
2021/03/07 03:20:41;;;;;;;17.03;8.97;;;;;;;;;;5014232;28;20207;-75
2021/03/07 03:23:07;;;;;;;10.80;8.33;;;;;;;;;;5013884;28;20204;-75
2021/03/07 03:25:33;;;;;;;14.47;8.73;;;;;;;;;;5014080;28;20177;-74
2021/03/07 03:27:59;;;;;;;12.83;8.97;;;;;;;;;;5012711;28;20212;-75
2021/03/07 03:30:25;;;;;;;12.10;8.10;;;;;;;;;;5013955;28;20237;-75
2021/03/07 03:32:51;;;;;;;11.83;8.07;;;;;;;;;;5014744;28;20256;-75
2021/03/07 03:35:17;;;;;;;17.00;9.77;;;;;;;;;;5014985;28;20177;-75
2021/03/07 03:37:43;;;;;;;14.53;8.87;;;;;;;;;;5013407;28;20184;-75
2021/03/07 03:40:10;;;;;;;14.10;8.67;;;;;;;;;;5013744;28;20669;-75
2021/03/07 03:42:39;;;;;;;12.10;9.10;;;;;;;;;;5013670;28;20243;-75
2021/03/07 03:45:06;;;;;;;11.90;8.97;;;;;;;;;;5013631;28;20557;-75
2021/03/07 03:47:32;;;;;;;12.50;8.73;;;;;;;;;;5013403;28;20187;-75
2021/03/07 03:49:58;;;;;;;13.17;9.00;;;;;;;;;;5013216;28;20176;-75
2021/03/07 03:52:24;;;;;;;14.20;9.33;;;;;;;;;;5013328;28;20227;-75
2021/03/07 03:54:58;;;;;;;13.53;9.37;;;;;;;;;;5013553;28;20195;-75
2021/03/07 03:57:33;;;;;;;13.00;8.63;;;;;;;;;;5013221;28;20180;-75
2021/03/07 04:00:04;;;;;;;13.13;8.73;;;;;;;;;;5013503;28;20661;-75
2021/03/07 04:02:30;;;;;;;12.13;9.10;;;;;;;;;;5029573;28;20704;-75
2021/03/07 04:04:57;;;;;;;13.10;9.10;;;;;;;;;;5013133;28;20190;-75
2021/03/07 04:07:23;;;;;;;13.73;9.27;;;;;;;;;;5013175;28;20178;-75
2021/03/07 04:09:49;;;;;;;12.77;9.53;;;;;;;;;;5013137;28;20217;-75
2021/03/07 04:12:15;;;;;;;15.77;9.13;;;;;;;;;;5012646;28;20295;-75
2021/03/07 04:14:41;;;;;;;12.90;8.73;;;;;;;;;;5015071;28;20364;-74
2021/03/07 04:17:07;;;;;;;13.23;9.00;;;;;;;;;;5013165;28;20178;-74
2021/03/07 04:19:33;;;;;;;15.20;9.47;;;;;;;;;;5012959;28;20236;-74
2021/03/07 04:21:59;;;;;;;14.70;9.80;;;;;;;;;;5012687;28;20693;-74
2021/03/07 04:24:25;;;;;;;12.80;9.03;;;;;;;;;;5012991;28;20186;-74
2021/03/07 04:26:51;;;;;;;14.73;9.10;;;;;;;;;;5012808;28;20619;-74
2021/03/07 04:29:17;;;;;;;15.83;9.63;;;;;;;;;;5012345;28;20260;-74
2021/03/07 04:31:43;;;;;;;12.87;8.93;;;;;;;;;;5012506;28;20226;-74
2021/03/07 04:34:09;;;;;;;13.20;9.30;;;;;;;;;;5012652;28;20302;-75
2021/03/07 04:36:37;;;;;;;18.17;9.83;;;;;;;;;;5012646;28;20643;-74
2021/03/07 04:39:04;;;;;;;15.07;9.07;;;;;;;;;;5012521;28;20725;-73
2021/03/07 04:41:30;;;;;;;13.40;9.40;;;;;;;;;;5012283;28;20202;-74
2021/03/07 04:43:56;;;;;;;13.90;8.90;;;;;;;;;;5012540;28;20255;-74
2021/03/07 04:46:23;;;;;;;13.97;9.30;;;;;;;;;;5012974;28;20231;-74
2021/03/07 04:48:49;;;;;;;16.77;9.43;;;;;;;;;;5012319;28;20700;-75
2021/03/07 04:51:15;;;;;;;14.83;9.50;;;;;;;;;;5012493;28;20180;-75
2021/03/07 04:53:41;;;;;;;13.70;8.87;;;;;;;;;;5013321;28;20698;-75
2021/03/07 04:56:07;;;;;;;14.07;9.20;;;;;;;;;;5013449;28;20199;-75
2021/03/07 04:58:34;;;;;;;12.93;9.23;;;;;;;;;;5028570;28;20191;-75
2021/03/07 05:01:00;;;;;;;13.80;8.70;;;;;;;;;;5012267;28;20185;-74
2021/03/07 05:03:26;;;;;;;12.00;9.73;;;;;;;;;;5011884;28;20213;-74
2021/03/07 05:05:52;;;;;;;15.43;9.07;;;;;;;;;;5028528;28;20290;-74
2021/03/07 05:08:18;;;;;;;12.50;9.80;;;;;;;;;;5013186;28;20444;-74
2021/03/07 05:10:43;;;;;;;15.50;10.07;;;;;;;;;;5011904;28;20640;-75
2021/03/07 05:13:09;;;;;;;13.07;9.50;;;;;;;;;;5011657;28;20216;-74
2021/03/07 05:15:35;;;;;;;13.37;8.60;;;;;;;;;;5012180;28;20185;-74
2021/03/07 05:18:01;;;;;;;13.77;9.03;;;;;;;;;;5013077;28;20306;-74
2021/03/07 05:20:27;;;;;;;15.53;9.90;;;;;;;;;;5012033;28;20221;-74
2021/03/07 05:22:53;;;;;;;13.70;9.43;;;;;;;;;;5011782;28;20232;-74
2021/03/07 05:25:19;;;;;;;12.33;9.13;;;;;;;;;;5011596;28;20704;-75
2021/03/07 05:27:45;;;;;;;14.47;9.77;;;;;;;;;;5011579;28;20210;-75
2021/03/07 05:30:12;;;;;;;14.67;9.60;;;;;;;;;;5011664;28;20188;-74
2021/03/07 05:32:37;;;;;;;13.83;9.67;;;;;;;;;;5012800;28;20201;-75
2021/03/07 05:35:04;;;;;;;13.70;9.97;;;;;;;;;;5011753;28;20175;-74
2021/03/07 05:37:30;;;;;;;12.60;9.27;;;;;;;;;;5011658;28;20593;-75
2021/03/07 05:39:55;;;;;;;14.50;10.10;;;;;;;;;;5010512;28;20184;-74
2021/03/07 05:42:21;;;;;;;15.60;9.20;;;;;;;;;;5012491;28;20677;-75
2021/03/07 05:44:47;;;;;;;14.20;9.50;;;;;;;;;;5011782;28;20718;-74
2021/03/07 05:47:15;;;;;;;12.10;8.93;;;;;;;;;;5011427;28;20238;-74
2021/03/07 05:49:41;;;;;;;13.23;9.47;;;;;;;;;;5011416;28;20793;-74
2021/03/07 05:52:07;;;;;;;13.60;9.43;;;;;;;;;;5027595;28;20291;-75
2021/03/07 05:54:33;;;;;;;15.90;9.50;;;;;;;;;;5011406;28;20222;-74
2021/03/07 05:56:59;;;;;;;15.53;9.67;;;;;;;;;;5011449;28;20180;-74
2021/03/07 05:59:25;;;;;;;14.70;10.50;;;;;;;;;;5011444;28;20247;-74
2021/03/07 06:01:51;;;;;;;14.87;9.73;;;;;;;;;;5011282;28;20204;-74
2021/03/07 06:04:17;;;;;;;14.57;10.60;;;;;;;;;;5010950;28;20187;-74
2021/03/07 06:06:43;;;;;;;12.73;9.87;;;;;;;;;;5014547;28;20576;-76
2021/03/07 06:09:16;;;;;;;14.87;9.43;;;;;;;;;;5029198;28;20210;-75
2021/03/07 06:11:42;;;;;;;15.53;10.53;;;;;;;;;;5024914;28;20214;-76
2021/03/07 06:14:18;;;;;;;13.30;10.13;;;;;;;;;;5030852;28;20179;-75
2021/03/07 06:16:59;;;;;;;16.90;9.53;;;;;;;;;;5008117;28;20570;-75
2021/03/07 06:19:25;;;;;;;16.73;10.43;;;;;;;;;;5011935;28;20662;-75
2021/03/07 06:21:52;;;;;;;16.33;11.70;;;;;;;;;;5012744;28;20207;-75
2021/03/07 06:24:34;;;;;;;17.60;10.93;;;;;;;;;;5028004;28;20531;-75
2021/03/07 06:27:07;;;;;;;14.07;9.73;;;;;;;;;;5013138;28;20182;-75
2021/03/07 06:29:33;;;;;;;14.07;10.00;;;;;;;;;;5030052;28;20215;-75
2021/03/07 06:31:59;;;;;;;13.90;10.13;;;;;;;;;;5030574;28;20198;-75
2021/03/07 06:34:25;;;;;;;15.17;10.20;;;;;;;;;;5014158;28;20180;-75
2021/03/07 06:37:11;;;;;;;16.13;11.30;;;;;;;;;;5031438;28;20274;-75
2021/03/07 06:39:37;;;;;;;15.37;10.63;;;;;;;;;;5029087;28;20191;-75
2021/03/07 06:42:03;;;;;;;16.13;10.87;;;;;;;;;;5013498;28;20202;-75
2021/03/07 06:44:29;;;;;;;15.57;10.70;;;;;;;;;;5029953;28;20259;-75
2021/03/07 06:47:00;;;;;;;14.77;10.93;;;;;;;;;;5013819;28;20310;-75
2021/03/07 06:49:26;;;;;;;14.20;10.53;;;;;;;;;;5030160;28;20223;-75
2021/03/07 06:51:54;;;;;;;17.07;10.90;;;;;;;;;;5017089;28;20626;-75
2021/03/07 06:54:21;;;;;;;15.67;10.73;;;;;;;;;;5034829;28;20168;-76
2021/03/07 06:56:50;;;;;;;19.07;10.93;;;;;;;;;;5034549;28;20182;-76
2021/03/07 06:59:20;;;;;;;14.60;10.27;;;;;;;;;;5017802;28;20192;-75
2021/03/07 07:01:56;;;;;;;11.83;9.47;;;;;;;;;;5017742;28;20204;-75
2021/03/07 07:04:22;;;;;;;13.47;9.53;;;;;;;;;;5034255;28;20220;-74
2021/03/07 07:07:01;;;;;;;11.90;9.07;;;;;;;;;;5034290;28;20191;-74
2021/03/07 07:09:27;;;;;;;13.10;9.43;;;;;;;;;;5034100;28;20209;-75
2021/03/07 07:11:54;;;;;;;12.30;9.73;;;;;;;;;;5033543;28;20279;-74
2021/03/07 07:14:38;;;;;;;13.17;9.83;;;;;;;;;;5034823;28;20549;-74
2021/03/07 07:17:04;;;;;;;14.93;10.13;;;;;;;;;;5017201;28;20273;-75
2021/03/07 07:19:30;;;;;;;10.77;8.93;;;;;;;;;;5033957;28;20209;-75
2021/03/07 07:21:56;;;;;;;19.20;9.97;;;;;;;;;;5033903;28;20255;-74
2021/03/07 07:24:22;;;;;;;13.20;9.70;;;;;;;;;;5017524;28;20178;-75
2021/03/07 07:26:49;;;;;;;15.10;9.57;;;;;;;;;;5033866;28;20188;-74
2021/03/07 07:29:15;;;;;;;13.27;9.17;;;;;;;;;;5033562;28;20688;-75
2021/03/07 07:31:44;;;;;;;13.27;9.03;;;;;;;;;;5033756;28;20857;-74
2021/03/07 07:34:14;;;;;;;13.83;9.07;;;;;;;;;;5034916;28;20207;-74
2021/03/07 07:36:40;;;;;;;15.23;10.17;;;;;;;;;;5017076;28;20217;-74
2021/03/07 07:39:06;;;;;;;16.17;10.47;;;;;;;;;;5034634;28;20208;-74
2021/03/07 07:41:33;;;;;;;14.87;9.27;;;;;;;;;;5034360;28;20257;-74
2021/03/07 07:44:00;;;;;;;12.77;9.23;;;;;;;;;;5033588;28;20185;-75
2021/03/07 07:46:26;;;;;;;11.63;8.70;;;;;;;;;;5017120;28;20196;-74
2021/03/07 07:48:52;;;;;;;13.73;9.37;;;;;;;;;;5033078;28;20209;-73
2021/03/07 07:51:30;;;;;;;13.70;10.10;;;;;;;;;;5039711;28;20185;-73
2021/03/07 07:53:56;;;;;;;13.87;9.30;;;;;;;;;;5027132;28;20661;-73
2021/03/07 07:56:38;;;;;;;15.20;9.93;;;;;;;;;;5036864;28;20185;-73
2021/03/07 07:59:05;;;;;;;13.20;9.73;;;;;;;;;;5023645;28;20238;-73
2021/03/07 08:01:50;;;;;;;15.97;9.83;;;;;;;;;;5044860;28;20260;-73
2021/03/07 08:04:28;;;;;;;16.27;9.43;;;;;;;;;;5035419;28;20189;-74
2021/03/07 08:06:57;;;;;;;12.03;8.77;;;;;;;;;;5034214;28;20210;-73
2021/03/07 08:09:38;;;;;;;13.77;9.50;;;;;;;;;;5032873;28;20210;-73
2021/03/07 08:12:23;;;;;;;12.00;9.27;;;;;;;;;;5033991;28;20240;-74
2021/03/07 08:14:49;;;;;;;13.47;9.60;;;;;;;;;;5034251;28;20175;-75
2021/03/07 08:17:34;;;;;;;12.90;9.50;;;;;;;;;;5033273;28;20224;-78
2021/03/07 08:20:00;;;;;;;13.23;9.10;;;;;;;;;;5032772;28;20187;-75
2021/03/07 08:22:26;;;;;;;10.70;8.63;;;;;;;;;;5033432;28;20859;-75
2021/03/07 08:24:58;;;;;;;11.30;9.00;;;;;;;;;;5014320;28;20186;-76
2021/03/07 08:27:31;;;;;;;11.97;9.00;;;;;;;;;;5031364;28;20205;-75
2021/03/07 08:29:57;;;;;;;13.37;8.53;;;;;;;;;;5033340;28;20624;-75
2021/03/07 08:32:25;;;;;;;11.20;9.00;;;;;;;;;;5033101;28;20202;-76
2021/03/07 08:34:51;;;;;;;14.07;9.00;;;;;;;;;;5032421;28;20274;-75
2021/03/07 08:37:17;;;;;;;12.03;8.30;;;;;;;;;;5007942;28;20262;-76
2021/03/07 08:39:43;;;;;;;13.47;8.77;;;;;;;;;;5032615;28;20190;-77
2021/03/07 08:42:09;;;;;;;14.97;8.77;;;;;;;;;;5032761;28;20588;-79
2021/03/07 08:44:36;;;;;;;11.03;8.10;;;;;;;;;;5016101;28;20193;-76
2021/03/07 08:47:02;;;;;;;12.27;8.57;;;;;;;;;;5017610;28;20625;-77
2021/03/07 08:49:31;;;;;;;11.17;7.83;;;;;;;;;;5031663;28;20296;-76
2021/03/07 08:52:01;;;;;;;10.30;7.23;;;;;;;;;;5026735;28;20206;-77
2021/03/07 08:54:29;;;;;;;10.67;7.20;;;;;;;;;;5015853;28;20179;-77
2021/03/07 08:56:55;;;;;;;11.07;7.60;;;;;;;;;;5029046;28;20173;-75
2021/03/07 08:59:25;;;;;;;10.30;7.90;;;;;;;;;;5028878;28;20566;-76
2021/03/07 09:01:51;;;;;;;13.27;8.00;;;;;;;;;;5003020;28;20298;-76
2021/03/07 09:04:17;;;;;;;12.63;9.03;;;;;;;;;;5015688;28;20379;-76
2021/03/07 09:06:44;;;;;;;12.00;8.53;;;;;;;;;;5033337;28;20182;-76
2021/03/07 09:09:19;;;;;;;10.83;8.00;;;;;;;;;;5031745;28;20291;-75
2021/03/07 09:12:04;;;;;;;12.40;8.43;;;;;;;;;;5033517;28;20270;-75
2021/03/07 09:14:40;;;;;;;10.00;7.60;;;;;;;;;;5014211;28;20189;-76
2021/03/07 09:17:07;;;;;;;11.77;8.10;;;;;;;;;;5032544;28;20544;-76
2021/03/07 09:19:36;;;;;;;11.17;7.60;;;;;;;;;;5031566;28;20656;-76
2021/03/07 09:22:13;;;;;;;10.97;6.73;;;;;;;;;;5031363;28;20580;-74
2021/03/07 09:24:39;;;;;;;7.73;6.67;;;;;;;;;;5031674;28;20178;-75
2021/03/07 09:27:09;;;;;;;8.40;5.70;;;;;;;;;;5031682;28;20178;-76
2021/03/07 09:29:35;;;;;;;8.80;5.83;;;;;;;;;;5031411;28;20234;-76
2021/03/07 09:32:01;;;;;;;8.70;5.87;;;;;;;;;;5031567;28;20198;-76
2021/03/07 09:34:31;;;;;;;7.57;5.30;;;;;;;;;;5031588;28;20539;-77
2021/03/07 09:36:57;;;;;;;8.53;5.80;;;;;;;;;;5031953;28;20651;-77
2021/03/07 09:39:23;;;;;;;11.77;5.63;;;;;;;;;;5014930;28;20341;-76
2021/03/07 09:41:49;;;;;;;7.83;6.10;;;;;;;;;;5031649;28;20213;-75
2021/03/07 09:44:19;;;;;;;8.53;5.87;;;;;;;;;;5015057;28;20190;-77
2021/03/07 09:46:45;;;;;;;10.43;6.27;;;;;;;;;;5014836;28;20183;-74
2021/03/07 09:49:13;;;;;;;8.27;5.57;;;;;;;;;;5030884;28;20206;-75
2021/03/07 09:51:40;;;;;;;7.23;4.53;;;;;;;;;;5031132;28;20194;-73
2021/03/07 09:54:06;;;;;;;7.60;3.97;;;;;;;;;;5031069;28;20190;-74
2021/03/07 09:56:33;;;;;;;4.60;3.77;;;;;;;;;;5031287;28;20241;-73
2021/03/07 09:59:12;;;;;;;8.60;3.83;;;;;;;;;;5031444;28;20265;-73
2021/03/07 10:01:53;;;;;;;7.80;2.90;;;;;;;;;;5032320;28;20210;-75
2021/03/07 10:04:29;;;;;;;6.07;2.87;;;;;;;;;;5030902;28;20186;-73
2021/03/07 10:06:56;;;;;;;3.00;2.57;;;;;;;;;;5030920;28;20178;-74
2021/03/07 10:09:21;;;;;;;3.50;2.80;;;;;;;;;;5029604;28;20220;-74
2021/03/07 10:11:57;;;;;;;6.97;2.63;;;;;;;;;;5005598;28;20214;-74
2021/03/07 10:14:24;;;;;;;4.07;2.60;;;;;;;;;;5060624;23;20225;-74
2021/03/07 10:16:51;;;;;;;4.10;2.70;;;;;;;;;;5047312;28;20185;-79
2021/03/07 10:19:17;;;;;;;5.77;2.33;;;;;;;;;;5042585;28;20584;-78
2021/03/07 10:21:45;;;;;;;3.30;2.30;;;;;;;;;;5050986;28;20191;-76
2021/03/07 10:24:18;;;;;;;2.33;2.00;;;;;;;;;;5030356;28;20658;-83
2021/03/07 10:26:45;;;;;;;3.37;2.20;;;;;;;;;;5009868;28;20232;-82
2021/03/07 10:29:21;;;;;;;3.93;2.00;;;;;;;;;;5014629;28;20230;-75
2021/03/07 10:32:07;;;;;;;1.97;1.60;;;;;;;;;;5030933;28;20182;-80
2021/03/07 10:34:34;;;;;;;2.70;1.70;;;;;;;;;;5046857;28;20201;-80
2021/03/07 10:37:00;;;;;;;1.60;1.40;;;;;;;;;;5023181;28;20636;-78
2021/03/07 10:39:26;;;;;;;2.73;1.70;;;;;;;;;;5012313;28;20172;-76
2021/03/07 10:42:03;;;;;;;3.53;1.50;;;;;;;;;;5012565;28;20175;-76
2021/03/07 10:44:28;;;;;;;2.43;1.80;;;;;;;;;;5013064;28;20206;-78
2021/03/07 10:46:54;;;;;;;3.17;1.73;;;;;;;;;;5025574;28;20189;-77
2021/03/07 10:49:20;;;;;;;2.30;1.40;;;;;;;;;;5031167;28;20213;-71
2021/03/07 10:51:46;;;;;;;2.93;1.50;;;;;;;;;;5030439;28;20182;-71
2021/03/07 10:54:12;;;;;;;2.50;1.37;;;;;;;;;;5030446;28;20199;-70
2021/03/07 10:56:40;;;;;;;1.37;1.27;;;;;;;;;;5032613;28;20177;-72
2021/03/07 10:59:06;;;;;;;1.30;1.20;;;;;;;;;;5031973;28;20175;-71
2021/03/07 11:01:32;;;;;;;2.23;1.20;;;;;;;;;;5030168;28;20237;-75
2021/03/07 11:03:58;;;;;;;1.50;1.40;;;;;;;;;;5029718;28;20186;-73
2021/03/07 11:06:24;;;;;;;2.67;1.23;;;;;;;;;;5029994;28;20270;-73
2021/03/07 11:08:50;;;;;;;1.90;1.23;;;;;;;;;;5029950;28;20197;-72
2021/03/07 11:11:16;;;;;;;1.40;1.30;;;;;;;;;;5030092;28;20257;-73
2021/03/07 11:13:42;;;;;;;2.17;1.10;;;;;;;;;;5026433;28;20184;-73
2021/03/07 11:16:08;;;;;;;1.20;1.10;;;;;;;;;;5026880;28;20567;-72
2021/03/07 11:18:35;;;;;;;1.67;1.30;;;;;;;;;;5030102;28;20187;-71
2021/03/07 11:21:00;;;;;;;1.30;1.00;;;;;;;;;;5013411;28;20182;-73
2021/03/07 11:23:27;;;;;;;1.07;0.90;;;;;;;;;;5029538;28;20185;-71
2021/03/07 11:25:52;;;;;;;1.97;1.10;;;;;;;;;;5011443;28;20295;-71
2021/03/07 11:28:18;;;;;;;1.27;0.90;;;;;;;;;;5031621;28;20682;-78
2021/03/07 11:30:44;;;;;;;2.23;1.10;;;;;;;;;;5032790;28;20179;-77
2021/03/07 11:33:10;;;;;;;2.97;1.10;;;;;;;;;;5031987;28;20186;-77
2021/03/07 11:35:36;;;;;;;1.83;1.03;;;;;;;;;;5031846;28;20251;-74
2021/03/07 11:38:02;;;;;;;2.17;1.30;;;;;;;;;;5030632;28;20568;-74
2021/03/07 11:40:28;;;;;;;2.07;1.40;;;;;;;;;;5026733;28;20189;-75
2021/03/07 11:42:55;;;;;;;1.57;1.20;;;;;;;;;;5033586;28;20596;-74
2021/03/07 11:45:21;;;;;;;1.30;1.20;;;;;;;;;;5045812;28;20195;-77
2021/03/07 11:47:47;;;;;;;1.80;1.30;;;;;;;;;;5034131;28;20319;-78
2021/03/07 11:50:13;;;;;;;2.70;1.20;;;;;;;;;;5016569;28;20184;-78
2021/03/07 11:52:39;;;;;;;1.90;1.27;;;;;;;;;;5033526;28;20727;-79
2021/03/07 11:55:05;;;;;;;2.87;1.50;;;;;;;;;;5026765;28;20221;-75
2021/03/07 11:57:31;;;;;;;2.77;1.10;;;;;;;;;;5034309;28;20566;-75
2021/03/07 11:59:57;;;;;;;1.43;1.20;;;;;;;;;;5030797;28;20386;-75
2021/03/07 12:02:23;;;;;;;1.60;1.40;;;;;;;;;;5027930;28;20245;-83
2021/03/07 12:04:49;;;;;;;3.20;1.40;;;;;;;;;;5026941;28;20201;-75
2021/03/07 12:07:15;;;;;;;1.70;1.10;;;;;;;;;;5027161;28;20185;-75
2021/03/07 12:09:41;;;;;;;2.30;1.30;;;;;;;;;;5041958;28;20268;-75
2021/03/07 12:12:07;;;;;;;3.53;1.50;;;;;;;;;;5038221;28;20197;-74
2021/03/07 12:14:33;;;;;;;2.37;1.30;;;;;;;;;;5032772;28;20357;-76
2021/03/07 12:16:59;;;;;;;2.27;1.37;;;;;;;;;;5033004;28;20178;-75
2021/03/07 12:19:25;;;;;;;4.50;1.40;;;;;;;;;;5024758;28;20186;-76
2021/03/07 12:21:51;;;;;;;1.47;1.20;;;;;;;;;;5032959;28;20179;-76
2021/03/07 12:24:18;;;;;;;2.70;1.50;;;;;;;;;;5032924;28;20206;-75
2021/03/07 12:26:44;;;;;;;1.73;1.30;;;;;;;;;;5032476;28;20205;-74
2021/03/07 12:29:09;;;;;;;1.70;1.30;;;;;;;;;;5032938;28;20585;-77
2021/03/07 12:31:35;;;;;;;2.87;1.20;;;;;;;;;;5034064;28;20179;-74
2021/03/07 12:34:02;;;;;;;3.13;1.30;;;;;;;;;;5033884;28;20245;-74
2021/03/07 12:36:28;;;;;;;1.57;1.10;;;;;;;;;;5015224;28;20685;-74
2021/03/07 12:38:54;;;;;;;3.47;1.40;;;;;;;;;;5014104;28;20190;-73
2021/03/07 12:41:20;;;;;;;2.50;1.40;;;;;;;;;;5014460;28;20175;-75
2021/03/07 12:43:46;;;;;;;2.93;1.40;;;;;;;;;;5012728;28;20195;-75
2021/03/07 12:46:12;;;;;;;1.57;1.20;;;;;;;;;;5029464;28;20206;-74
2021/03/07 12:48:38;;;;;;;2.17;1.30;;;;;;;;;;5015694;28;20235;-73
2021/03/07 12:51:04;;;;;;;1.77;1.27;;;;;;;;;;5032275;28;20636;-78
2021/03/07 12:53:30;;;;;;;1.83;1.20;;;;;;;;;;5015865;28;20240;-76
2021/03/07 12:55:56;;;;;;;1.13;1.00;;;;;;;;;;5033296;28;20199;-78
2021/03/07 12:58:22;;;;;;;2.70;1.40;;;;;;;;;;5032172;28;20233;-77
2021/03/07 13:00:48;;;;;;;1.70;1.30;;;;;;;;;;5031925;28;20187;-79
2021/03/07 13:03:14;;;;;;;2.23;1.10;;;;;;;;;;5033383;28;20647;-75
2021/03/07 13:05:40;;;;;;;1.70;1.10;;;;;;;;;;5032000;28;20274;-74
2021/03/07 13:08:06;;;;;;;1.67;1.20;;;;;;;;;;5033274;28;20207;-74
2021/03/07 13:10:32;;;;;;;2.40;1.30;;;;;;;;;;5033021;28;20575;-75
2021/03/07 13:12:58;;;;;;;2.83;1.30;;;;;;;;;;5015364;28;20178;-75
2021/03/07 13:15:24;;;;;;;1.87;1.20;;;;;;;;;;5031323;28;20595;-75
2021/03/07 13:17:50;;;;;;;1.43;1.10;;;;;;;;;;5032332;28;20189;-74
2021/03/07 13:20:16;;;;;;;3.33;1.70;;;;;;;;;;5032305;28;20571;-74
2021/03/07 13:22:42;;;;;;;3.53;1.50;;;;;;;;;;5031772;28;20199;-81
2021/03/07 13:25:09;;;;;;;2.37;1.40;;;;;;;;;;5031655;28;20203;-76
2021/03/07 13:27:35;;;;;;;2.67;1.33;;;;;;;;;;5031851;28;20178;-74
2021/03/07 13:30:01;;;;;;;4.20;1.70;;;;;;;;;;5031221;28;20293;-75
2021/03/07 13:32:27;;;;;;;3.20;1.73;;;;;;;;;;5030538;28;20205;-74
2021/03/07 13:34:53;;;;;;;1.77;1.40;;;;;;;;;;5013175;28;20664;-74
2021/03/07 13:37:19;;;;;;;2.93;1.67;;;;;;;;;;5014200;28;20225;-74
2021/03/07 13:39:45;;;;;;;1.67;1.43;;;;;;;;;;5032134;28;20197;-75
2021/03/07 13:42:11;;;;;;;2.13;1.30;;;;;;;;;;5014373;28;20199;-75
2021/03/07 13:44:36;;;;;;;1.30;1.20;;;;;;;;;;5032846;28;20743;-73
2021/03/07 13:47:02;;;;;;;2.60;1.73;;;;;;;;;;5032338;28;20663;-73
2021/03/07 13:49:28;;;;;;;4.47;2.10;;;;;;;;;;5021386;28;20587;-75
2021/03/07 13:51:54;;;;;;;3.63;1.97;;;;;;;;;;5013046;28;20183;-74
2021/03/07 13:54:21;;;;;;;3.00;2.00;;;;;;;;;;5011653;28;20252;-74
2021/03/07 13:56:47;;;;;;;2.17;1.37;;;;;;;;;;4995579;28;20268;-71
2021/03/07 13:59:13;;;;;;;2.70;1.60;;;;;;;;;;5027969;28;20279;-70
2021/03/07 14:01:39;;;;;;;3.57;1.83;;;;;;;;;;5030749;28;20758;-70
2021/03/07 14:04:05;;;;;;;2.83;1.60;;;;;;;;;;5031286;28;20186;-69
2021/03/07 14:06:31;;;;;;;3.50;1.50;;;;;;;;;;5030781;28;20189;-68
2021/03/07 14:08:57;;;;;;;3.03;1.70;;;;;;;;;;5031331;28;20303;-70
2021/03/07 14:11:23;;;;;;;2.33;1.50;;;;;;;;;;5031562;28;20200;-69
2021/03/07 14:13:49;;;;;;;2.27;1.50;;;;;;;;;;5029932;28;20188;-69
2021/03/07 14:16:15;;;;;;;2.43;1.47;;;;;;;;;;5030118;28;20210;-70
2021/03/07 14:18:41;;;;;;;2.93;1.60;;;;;;;;;;5031084;28;20228;-70
2021/03/07 14:21:07;;;;;;;2.33;1.63;;;;;;;;;;5030262;28;20178;-70
2021/03/07 14:23:33;;;;;;;2.70;1.70;;;;;;;;;;5030626;28;20237;-70
2021/03/07 14:25:59;;;;;;;2.80;1.67;;;;;;;;;;5031686;28;20206;-71
2021/03/07 14:28:25;;;;;;;4.23;1.70;;;;;;;;;;5030831;28;20233;-70
2021/03/07 14:30:51;;;;;;;2.60;1.83;;;;;;;;;;5031808;28;20551;-71
2021/03/07 14:33:17;;;;;;;4.20;1.67;;;;;;;;;;5031715;28;20182;-70